createdAt,value
2022-12-19T00:01:36.576Z,3.07
2022-12-19T00:04:07.840Z,3.06
2022-12-19T00:06:35.444Z,3.33
2022-12-19T00:09:02.121Z,3.35
2022-12-19T00:11:29.212Z,3.26
2022-12-19T00:13:56.322Z,2.94
2022-12-19T00:16:24.515Z,3.32
2022-12-19T00:18:55.100Z,3.18
2022-12-19T00:21:23.465Z,3.30
2022-12-19T00:23:50.644Z,3.43
2022-12-19T00:26:18.934Z,3.45
2022-12-19T00:28:49.248Z,3.23
2022-12-19T00:31:16.997Z,3.05
2022-12-19T00:33:44.206Z,3.00
2022-12-19T00:36:12.376Z,2.98
2022-12-19T00:38:38.816Z,3.15
2022-12-19T00:41:10.066Z,3.39
2022-12-19T00:43:38.095Z,3.48
2022-12-19T00:46:05.519Z,3.36
2022-12-19T00:48:32.193Z,3.68
2022-12-19T00:50:59.631Z,3.27
2022-12-19T00:53:26.043Z,3.43
2022-12-19T00:55:52.601Z,3.42
2022-12-19T00:58:22.558Z,3.39
2022-12-19T01:00:49.388Z,3.37
2022-12-19T01:03:16.165Z,3.43
2022-12-19T01:05:42.472Z,3.56
2022-12-19T01:08:09.142Z,3.03
2022-12-19T01:10:35.467Z,3.26
2022-12-19T01:13:03.445Z,3.29
2022-12-19T01:15:29.998Z,3.28
2022-12-19T01:17:56.545Z,3.41
2022-12-19T01:20:26.687Z,3.15
2022-12-19T01:22:56.725Z,3.72
2022-12-19T01:25:25.174Z,3.58
2022-12-19T01:27:53.925Z,4.10
2022-12-19T01:30:20.556Z,3.43
2022-12-19T01:32:47.621Z,4.06
2022-12-19T01:35:20.677Z,3.47
2022-12-19T01:37:48.460Z,3.97
2022-12-19T01:40:14.999Z,3.68
2022-12-19T01:42:42.574Z,3.39
2022-12-19T01:45:12.175Z,3.24
2022-12-19T01:47:48.324Z,3.91
2022-12-19T01:50:29.085Z,3.67
2022-12-19T01:52:56.546Z,3.39
2022-12-19T01:55:22.891Z,3.66
2022-12-19T01:57:49.334Z,3.95
2022-12-19T02:00:15.834Z,3.20
2022-12-19T02:02:45.100Z,3.63
2022-12-19T02:05:11.889Z,3.27
2022-12-19T02:07:38.793Z,3.88
2022-12-19T02:10:05.776Z,3.64
2022-12-19T02:12:34.655Z,3.33
2022-12-19T02:15:03.192Z,3.35
2022-12-19T02:17:30.094Z,3.28
2022-12-19T02:20:15.567Z,3.28
2022-12-19T02:22:51.908Z,3.43
2022-12-19T02:25:36.955Z,3.59
2022-12-19T02:28:24.106Z,3.85
2022-12-19T02:31:01.136Z,3.66
2022-12-19T02:33:41.268Z,3.64
2022-12-19T02:36:12.522Z,3.50
2022-12-19T02:38:50.905Z,3.67
2022-12-19T02:41:23.415Z,4.06
2022-12-19T02:43:58.078Z,4.12
2022-12-19T02:46:26.694Z,3.64
2022-12-19T02:48:53.736Z,3.76
2022-12-19T02:51:20.408Z,3.14
2022-12-19T02:53:48.451Z,3.79
2022-12-19T02:56:14.986Z,3.72
2022-12-19T02:58:48.102Z,3.92
2022-12-19T03:01:27.865Z,4.07
2022-12-19T03:04:06.502Z,3.59
2022-12-19T03:06:40.973Z,3.66
2022-12-19T03:09:23.473Z,3.91
2022-12-19T03:11:54.098Z,3.46
2022-12-19T03:14:21.207Z,3.64
2022-12-19T03:16:48.098Z,3.83
2022-12-19T03:19:14.926Z,3.58
2022-12-19T03:21:45.767Z,3.53
2022-12-19T03:24:12.839Z,3.48
2022-12-19T03:26:46.115Z,3.44
2022-12-19T03:29:12.789Z,3.86
2022-12-19T03:31:40.089Z,3.66
2022-12-19T03:34:10.461Z,4.23
2022-12-19T03:36:42.112Z,4.11
2022-12-19T03:39:10.299Z,4.05
2022-12-19T03:41:56.997Z,4.15
2022-12-19T03:44:26.042Z,3.87
2022-12-19T03:46:57.700Z,4.25
2022-12-19T03:49:24.467Z,3.82
2022-12-19T03:52:05.576Z,3.65
2022-12-19T03:54:34.956Z,3.99
2022-12-19T03:57:06.425Z,4.11
2022-12-19T03:59:54.987Z,4.49
2022-12-19T04:02:22.821Z,4.38
2022-12-19T04:04:52.418Z,4.39
2022-12-19T04:07:19.921Z,4.43
2022-12-19T04:09:47.443Z,4.25
2022-12-19T04:12:15.991Z,3.86
2022-12-19T04:14:42.976Z,3.88
2022-12-19T04:17:12.812Z,4.30
2022-12-19T04:19:49.523Z,4.45
2022-12-19T04:22:21.156Z,4.45
2022-12-19T04:24:50.647Z,4.70
2022-12-19T04:27:18.337Z,4.44
2022-12-19T04:29:45.351Z,4.33
2022-12-19T04:32:11.932Z,4.17
2022-12-19T04:34:42.712Z,3.80
2022-12-19T04:37:10.851Z,4.85
2022-12-19T04:39:37.494Z,4.74
2022-12-19T04:42:04.089Z,4.65
2022-12-19T04:44:30.764Z,4.80
2022-12-19T04:46:57.120Z,4.91
2022-12-19T04:49:23.463Z,4.48
2022-12-19T04:51:50.850Z,4.85
2022-12-19T04:54:17.563Z,4.94
2022-12-19T04:56:44.366Z,4.54
2022-12-19T04:59:11.291Z,4.88
2022-12-19T05:01:38.457Z,4.16
2022-12-19T05:04:05.467Z,4.87
2022-12-19T05:06:32.664Z,4.67
2022-12-19T05:09:00.645Z,4.38
2022-12-19T05:11:27.559Z,3.91
2022-12-19T05:14:01.316Z,4.96
2022-12-19T05:16:28.262Z,4.38
2022-12-19T05:18:54.568Z,4.66
2022-12-19T05:21:21.402Z,4.23
2022-12-19T05:23:50.134Z,4.51
2022-12-19T05:26:16.503Z,4.76
2022-12-19T05:28:42.832Z,5.26
2022-12-19T05:31:10.953Z,4.69
2022-12-19T05:33:37.309Z,4.90
2022-12-19T05:36:04.028Z,4.77
2022-12-19T05:38:30.763Z,4.99
2022-12-19T05:40:57.186Z,5.45
2022-12-19T05:43:23.840Z,5.44
2022-12-19T05:45:50.302Z,5.33
2022-12-19T05:48:16.647Z,5.29
2022-12-19T05:50:46.948Z,5.04
2022-12-19T05:53:13.403Z,5.64
2022-12-19T05:55:40.393Z,5.17
2022-12-19T05:58:06.770Z,4.60
2022-12-19T06:00:33.064Z,5.11
2022-12-19T06:02:59.454Z,4.96
2022-12-19T06:05:25.909Z,4.84
2022-12-19T06:07:52.183Z,4.81
2022-12-19T06:10:18.460Z,4.83
2022-12-19T06:12:45.074Z,5.09
2022-12-19T06:15:11.789Z,5.44
2022-12-19T06:17:38.181Z,5.39
2022-12-19T06:20:05.038Z,5.17
2022-12-19T06:22:31.601Z,5.50
2022-12-19T06:24:57.922Z,5.33
2022-12-19T06:27:24.228Z,5.14
2022-12-19T06:29:50.533Z,5.04
2022-12-19T06:32:17.173Z,5.32
2022-12-19T06:37:29.864Z,5.80
2022-12-19T06:39:56.166Z,5.45
2022-12-19T06:42:25.648Z,5.38
2022-12-19T06:44:53.667Z,5.39
2022-12-19T06:47:21.644Z,5.49
2022-12-19T06:49:48.740Z,5.14
2022-12-19T06:52:15.604Z,4.96
2022-12-19T06:54:42.509Z,5.54
2022-12-19T06:57:09.296Z,5.58
2022-12-19T06:59:35.647Z,5.86
2022-12-19T07:02:11.206Z,5.55
2022-12-19T07:04:39.391Z,5.62
2022-12-19T07:07:06.134Z,5.65
2022-12-19T07:09:33.742Z,5.78
2022-12-19T07:12:00.700Z,6.16
2022-12-19T07:14:27.275Z,5.92
2022-12-19T07:16:54.887Z,5.91
2022-12-19T07:19:22.753Z,5.85
2022-12-19T07:21:49.525Z,5.93
2022-12-19T07:24:16.124Z,6.26
2022-12-19T07:26:43.763Z,6.06
2022-12-19T07:29:12.991Z,6.46
2022-12-19T07:31:39.986Z,5.48
2022-12-19T07:34:06.770Z,5.83
2022-12-19T07:36:33.200Z,6.11
2022-12-19T07:39:00.643Z,5.66
2022-12-19T07:41:27.310Z,5.58
2022-12-19T07:43:53.838Z,5.62
2022-12-19T07:46:21.839Z,6.41
2022-12-19T07:48:48.448Z,6.51
2022-12-19T07:51:14.808Z,6.49
2022-12-19T07:53:41.271Z,6.13
2022-12-19T07:56:08.246Z,6.30
2022-12-19T07:58:35.084Z,6.26
2022-12-19T08:01:01.838Z,5.95
2022-12-19T08:03:31.443Z,6.57
2022-12-19T08:06:01.583Z,6.51
2022-12-19T08:08:28.391Z,6.14
2022-12-19T08:10:54.765Z,6.15
2022-12-19T08:13:21.055Z,6.42
2022-12-19T08:15:47.503Z,6.88
2022-12-19T08:18:14.192Z,6.23
2022-12-19T08:20:43.657Z,6.89
2022-12-19T08:23:09.945Z,6.37
2022-12-19T08:25:39.384Z,6.51
2022-12-19T08:28:05.767Z,6.08
2022-12-19T08:30:32.270Z,6.80
2022-12-19T08:32:58.604Z,6.22
2022-12-19T08:35:25.451Z,6.69
2022-12-19T08:37:52.061Z,6.29
2022-12-19T08:40:18.829Z,6.86
2022-12-19T08:42:45.164Z,6.57
2022-12-19T08:45:12.195Z,6.88
2022-12-19T08:47:38.722Z,7.00
2022-12-19T08:50:05.496Z,7.26
2022-12-19T08:52:31.825Z,6.79
2022-12-19T08:54:58.455Z,6.70
2022-12-19T08:57:24.879Z,6.89
2022-12-19T08:59:51.284Z,7.12
2022-12-19T09:02:18.912Z,7.08
2022-12-19T09:06:00.269Z,6.76
2022-12-19T09:07:31.952Z,7.12
2022-12-19T09:10:04.416Z,6.61
2022-12-19T09:12:30.832Z,6.01
2022-12-19T09:14:57.375Z,7.08
2022-12-19T09:17:23.837Z,7.17
2022-12-19T09:19:50.378Z,6.70
2022-12-19T09:22:16.975Z,7.40
2022-12-19T09:24:43.412Z,7.13
2022-12-19T09:27:10.901Z,7.06
2022-12-19T09:29:37.240Z,6.99
2022-12-19T09:32:04.166Z,6.92
2022-12-19T09:34:34.827Z,7.68
2022-12-19T09:37:05.189Z,7.26
2022-12-19T09:39:31.479Z,7.12
2022-12-19T09:42:06.990Z,7.40
2022-12-19T09:44:36.702Z,6.33
2022-12-19T09:47:19.754Z,6.71
2022-12-19T09:49:47.495Z,6.80
2022-12-19T09:52:19.227Z,7.45
2022-12-19T09:54:51.569Z,7.26
2022-12-19T09:57:20.786Z,7.34
2022-12-19T09:59:51.214Z,7.37
2022-12-19T10:02:26.395Z,7.76
2022-12-19T10:05:05.557Z,7.12
2022-12-19T10:08:07.576Z,7.10
2022-12-19T10:12:38.645Z,7.11
2022-12-19T10:13:57.471Z,7.40
2022-12-19T10:16:52.155Z,7.47
2022-12-19T10:19:45.759Z,7.44
2022-12-19T10:22:21.208Z,6.93
2022-12-19T10:24:57.578Z,7.41
2022-12-19T10:27:44.274Z,7.67
2022-12-19T10:30:26.189Z,7.83
2022-12-19T10:33:01.235Z,8.18
2022-12-19T10:35:32.428Z,7.81
2022-12-19T10:38:05.331Z,7.92
2022-12-19T10:40:39.272Z,7.73
2022-12-19T10:43:28.624Z,7.95
2022-12-19T10:46:02.553Z,7.38
2022-12-19T10:48:31.093Z,7.86
2022-12-19T10:50:58.385Z,8.01
2022-12-19T10:53:30.138Z,8.44
2022-12-19T10:56:16.696Z,7.95
2022-12-19T10:58:44.396Z,8.45
2022-12-19T11:01:13.933Z,8.51
2022-12-19T11:03:42.322Z,8.65
2022-12-19T11:06:29.400Z,8.75
2022-12-19T11:09:13.591Z,8.25
2022-12-19T11:14:33.998Z,8.43
2022-12-19T11:18:45.644Z,8.48
2022-12-19T11:27:03.061Z,8.03
2022-12-19T11:29:18.491Z,8.43
2022-12-19T11:29:26.288Z,8.58
2022-12-19T11:30:25.738Z,8.40
2022-12-19T11:30:38.060Z,8.51
2022-12-19T11:34:25.332Z,8.72
2022-12-19T11:37:10.589Z,8.89
2022-12-19T11:39:41.581Z,8.53
2022-12-19T11:42:12.227Z,8.93
2022-12-19T11:44:41.974Z,8.63
2022-12-19T11:47:20.480Z,8.70
2022-12-19T11:50:05.703Z,8.43
2022-12-19T11:53:03.535Z,8.59
2022-12-19T11:55:36.218Z,8.71
2022-12-19T11:58:02.522Z,8.48
2022-12-19T12:00:30.114Z,9.13
2022-12-19T12:03:02.650Z,8.60
2022-12-19T12:05:32.033Z,8.73
2022-12-19T12:09:47.436Z,8.84
2022-12-19T12:17:24.383Z,8.85
2022-12-19T12:22:39.463Z,8.89
2022-12-19T12:28:41.548Z,8.90
2022-12-19T12:29:00.665Z,8.73
2022-12-19T12:31:17.155Z,8.58
2022-12-19T12:31:19.292Z,8.79
2022-12-19T12:32:04.538Z,9.34
2022-12-19T12:35:56.947Z,9.38
2022-12-19T12:40:40.665Z,8.73
2022-12-19T12:43:22.368Z,9.03
2022-12-19T12:45:48.872Z,9.39
2022-12-19T12:48:25.811Z,9.03
2022-12-19T12:50:55.379Z,9.02
2022-12-19T12:53:24.060Z,9.10
2022-12-19T12:55:51.914Z,9.53
2022-12-19T12:58:37.038Z,8.95
2022-12-19T13:01:17.626Z,9.34
2022-12-19T13:03:53.077Z,9.10
2022-12-19T13:06:31.948Z,9.07
2022-12-19T13:09:16.513Z,9.08
2022-12-19T13:12:08.928Z,9.40
2022-12-19T13:14:35.510Z,9.29
2022-12-19T13:17:03.259Z,9.28
2022-12-19T13:19:30.871Z,9.49
2022-12-19T13:22:04.077Z,9.74
2022-12-19T13:24:41.015Z,9.82
2022-12-19T13:27:27.557Z,9.57
2022-12-19T13:30:00.160Z,9.28
2022-12-19T13:32:32.237Z,8.98
2022-12-19T13:35:06.279Z,9.98
2022-12-19T13:39:59.854Z,10.00
2022-12-19T13:41:24.904Z,9.69
2022-12-19T13:43:51.243Z,9.53
2022-12-19T13:46:27.390Z,9.62
2022-12-19T13:48:59.531Z,9.80
2022-12-19T13:51:26.061Z,9.81
2022-12-19T13:53:59.279Z,10.01
2022-12-19T13:56:30.292Z,9.84
2022-12-19T13:58:59.313Z,10.14
2022-12-19T14:01:27.862Z,10.38
2022-12-19T14:04:02.659Z,10.09
2022-12-19T14:06:47.418Z,10.36
2022-12-19T14:11:25.193Z,9.97
2022-12-19T14:13:59.189Z,10.20
2022-12-19T14:15:41.429Z,10.49
2022-12-19T14:18:42.252Z,10.26
2022-12-19T14:22:05.975Z,10.36
2022-12-19T14:24:10.420Z,10.38
2022-12-19T14:28:19.731Z,10.16
2022-12-19T14:30:26.599Z,10.11
2022-12-19T14:33:40.896Z,10.29
2022-12-19T14:36:09.089Z,10.26
2022-12-19T14:39:25.485Z,10.70
2022-12-19T14:41:09.487Z,10.99
2022-12-19T14:43:59.709Z,10.62
2022-12-19T14:52:08.552Z,10.59
2022-12-19T14:54:15.599Z,10.31
2022-12-19T14:54:25.925Z,10.74
2022-12-19T14:56:08.173Z,10.68
2022-12-19T14:58:55.604Z,10.57
2022-12-19T15:01:09.020Z,10.53
2022-12-19T15:03:43.289Z,10.81
2022-12-19T15:07:05.252Z,10.66
2022-12-19T15:11:03.347Z,10.84
2022-12-19T15:13:30.116Z,10.28
2022-12-19T15:15:16.270Z,10.33
2022-12-19T15:17:47.521Z,10.48
2022-12-19T15:20:14.196Z,11.29
2022-12-19T15:22:40.747Z,10.92
2022-12-19T15:25:17.552Z,11.01
2022-12-19T15:27:54.113Z,11.41
2022-12-19T15:30:21.566Z,11.15
2022-12-19T15:32:48.159Z,11.11
2022-12-19T15:35:15.941Z,10.71
2022-12-19T15:37:42.731Z,11.17
2022-12-19T15:40:16.512Z,11.47
2022-12-19T15:42:47.393Z,10.91
2022-12-19T15:45:19.257Z,10.82
2022-12-19T15:47:48.108Z,11.33
2022-12-19T15:50:22.085Z,11.37
2022-12-19T15:52:48.915Z,11.38
2022-12-19T15:55:19.093Z,11.67
2022-12-19T15:57:52.517Z,11.82
2022-12-19T16:00:23.191Z,12.06
2022-12-19T16:03:22.248Z,11.59
2022-12-19T16:05:36.985Z,11.50
2022-12-19T16:08:15.326Z,11.39
2022-12-19T16:10:42.296Z,11.91
2022-12-19T16:13:23.603Z,11.45
2022-12-19T16:15:50.864Z,11.79
2022-12-19T16:18:18.996Z,11.43
2022-12-19T16:20:45.896Z,11.64
2022-12-19T16:23:22.468Z,11.71
2022-12-19T16:25:52.770Z,11.79
2022-12-19T16:28:19.319Z,11.44
2022-12-19T16:30:46.230Z,11.76
2022-12-19T16:33:27.712Z,11.81
2022-12-19T16:36:04.061Z,11.47
2022-12-19T16:38:31.428Z,11.58
2022-12-19T16:41:01.693Z,11.67
2022-12-19T16:43:30.202Z,11.29
2022-12-19T16:46:01.522Z,12.00
2022-12-19T16:48:29.672Z,11.99
2022-12-19T16:51:15.586Z,12.12
2022-12-19T16:53:42.010Z,12.00
2022-12-19T16:56:13.661Z,12.22
2022-12-19T16:58:43.275Z,12.08
2022-12-19T17:01:11.052Z,12.24
2022-12-19T17:03:41.543Z,12.32
2022-12-19T17:06:13.271Z,12.39
2022-12-19T17:08:42.078Z,12.37
2022-12-19T17:11:23.192Z,12.31
2022-12-19T17:14:03.183Z,11.96
2022-12-19T17:16:30.222Z,12.54
2022-12-19T17:18:58.350Z,12.31
2022-12-19T17:21:25.869Z,12.07
2022-12-19T17:23:54.290Z,11.88
2022-12-19T17:26:21.179Z,12.06
2022-12-19T17:28:48.388Z,11.82
2022-12-19T17:31:20.953Z,11.99
2022-12-19T17:33:47.827Z,12.23
2022-12-19T17:36:18.465Z,12.00
2022-12-19T17:38:51.351Z,11.86
2022-12-19T17:41:18.348Z,12.32
2022-12-19T17:43:44.919Z,12.15
2022-12-19T17:46:19.601Z,12.33
2022-12-19T17:48:50.452Z,12.34
2022-12-19T17:51:18.479Z,11.75
2022-12-19T17:53:45.607Z,12.13
2022-12-19T17:56:16.261Z,12.00
2022-12-19T17:58:42.868Z,11.83
2022-12-19T18:01:20.337Z,12.03
2022-12-19T18:03:48.315Z,12.52
2022-12-19T18:06:15.731Z,12.09
2022-12-19T18:08:42.281Z,12.42
2022-12-19T18:11:16.293Z,12.60
2022-12-19T18:13:42.877Z,12.01
2022-12-19T18:16:11.940Z,12.42
2022-12-19T18:18:38.842Z,12.15
2022-12-19T18:21:15.664Z,11.96
2022-12-19T18:23:43.454Z,12.00
2022-12-19T18:26:13.225Z,12.65
2022-12-19T18:28:41.547Z,12.39
2022-12-19T18:31:15.979Z,12.09
2022-12-19T18:33:45.665Z,12.10
2022-12-19T18:36:27.418Z,12.39
2022-12-19T18:38:55.213Z,12.75
2022-12-19T18:41:28.231Z,12.40
2022-12-19T18:43:54.924Z,12.71
2022-12-19T18:46:26.680Z,12.18
2022-12-19T18:48:53.335Z,12.39
2022-12-19T18:51:23.245Z,12.73
2022-12-19T18:53:52.699Z,12.75
2022-12-19T18:56:20.099Z,12.78
2022-12-19T18:58:46.878Z,12.55
2022-12-19T19:01:20.533Z,12.42
2022-12-19T19:03:56.891Z,12.74
2022-12-19T19:06:28.483Z,12.63
2022-12-19T19:08:57.139Z,12.18
2022-12-19T19:11:25.031Z,12.66
2022-12-19T19:13:53.708Z,12.83
2022-12-19T19:16:21.585Z,12.97
2022-12-19T19:18:52.968Z,13.09
2022-12-19T19:21:22.301Z,12.54
2022-12-19T19:23:51.832Z,12.49
2022-12-19T19:26:18.269Z,12.36
2022-12-19T19:28:50.286Z,12.25
2022-12-19T19:31:20.588Z,12.43
2022-12-19T19:33:49.214Z,12.46
2022-12-19T19:36:18.469Z,12.75
2022-12-19T19:38:48.867Z,12.58
2022-12-19T19:41:15.234Z,12.69
2022-12-19T19:43:42.041Z,12.16
2022-12-19T19:46:08.788Z,12.81
2022-12-19T19:48:35.563Z,12.47
2022-12-19T19:51:02.360Z,12.62
2022-12-19T19:53:28.822Z,12.49
2022-12-19T19:55:57.910Z,12.51
2022-12-19T19:58:24.803Z,12.75
2022-12-19T20:00:51.288Z,12.57
2022-12-19T20:03:22.508Z,13.01
2022-12-19T20:05:49.341Z,12.93
2022-12-19T20:08:17.873Z,12.43
2022-12-19T20:10:44.433Z,12.22
2022-12-19T20:13:12.852Z,12.73
2022-12-19T20:15:44.387Z,12.71
2022-12-19T20:18:15.332Z,12.50
2022-12-19T20:20:42.871Z,12.77
2022-12-19T20:23:09.414Z,13.12
2022-12-19T20:25:36.116Z,13.03
2022-12-19T20:28:03.314Z,13.05
2022-12-19T20:30:29.855Z,13.16
2022-12-19T20:32:57.210Z,12.37
2022-12-19T20:35:23.905Z,12.46
2022-12-19T20:37:50.215Z,12.34
2022-12-19T20:40:16.839Z,12.58
2022-12-19T20:42:43.489Z,12.87
2022-12-19T20:45:10.099Z,12.76
2022-12-19T20:47:38.036Z,12.63
2022-12-19T20:50:05.162Z,13.02
2022-12-19T20:52:32.419Z,12.66
2022-12-19T20:54:58.858Z,12.89
2022-12-19T20:57:26.687Z,13.11
2022-12-19T20:59:53.436Z,13.32
2022-12-19T21:02:20.038Z,13.31
2022-12-19T21:04:47.577Z,13.18
2022-12-19T21:07:14.273Z,13.06
2022-12-19T21:09:45.031Z,12.64
2022-12-19T21:12:12.035Z,13.14
2022-12-19T21:14:38.421Z,12.65
2022-12-19T21:17:05.077Z,13.02
2022-12-19T21:19:31.431Z,12.98
2022-12-19T21:21:57.947Z,12.98
2022-12-19T21:24:25.709Z,13.22
2022-12-19T21:26:57.684Z,13.19
2022-12-19T21:29:24.518Z,13.06
2022-12-19T21:31:51.023Z,12.47
2022-12-19T21:34:17.766Z,12.81
2022-12-19T21:36:44.467Z,12.52
2022-12-19T21:39:11.065Z,12.59
2022-12-19T21:41:37.645Z,12.51
2022-12-19T21:44:04.450Z,13.02
2022-12-19T21:46:35.440Z,12.91
2022-12-19T21:49:03.323Z,12.46
2022-12-19T21:51:31.428Z,12.64
2022-12-19T21:54:00.385Z,12.53
2022-12-19T21:56:34.387Z,13.11
2022-12-19T21:59:02.506Z,13.17
2022-12-19T22:01:30.201Z,12.92
2022-12-19T22:04:01.256Z,12.54
2022-12-19T22:06:30.085Z,12.89
2022-12-19T22:08:56.625Z,12.78
2022-12-19T22:11:24.355Z,12.46
2022-12-19T22:13:51.329Z,12.87
2022-12-19T22:16:18.658Z,12.84
2022-12-19T22:18:47.919Z,12.48
2022-12-19T22:21:17.329Z,12.82
2022-12-19T22:23:44.991Z,12.25
2022-12-19T22:26:11.989Z,12.53
2022-12-19T22:28:39.377Z,12.22
2022-12-19T22:31:17.131Z,12.66
2022-12-19T22:33:44.337Z,12.16
2022-12-19T22:36:15.232Z,12.42
2022-12-19T22:38:43.478Z,12.23
2022-12-19T22:41:10.401Z,12.37
2022-12-19T22:43:37.493Z,12.29
2022-12-19T22:46:20.275Z,12.29
2022-12-19T22:48:48.208Z,12.51
2022-12-19T22:51:15.609Z,12.18
2022-12-19T22:53:43.038Z,12.57
2022-12-19T22:56:20.319Z,12.44
2022-12-19T22:58:48.389Z,12.32
2022-12-19T23:01:18.085Z,12.09
2022-12-19T23:03:46.057Z,12.65
2022-12-19T23:06:13.678Z,12.32
2022-12-19T23:08:40.408Z,11.84
2022-12-19T23:11:08.814Z,12.37
2022-12-19T23:13:35.427Z,12.26
2022-12-19T23:16:03.283Z,12.08
2022-12-19T23:18:30.006Z,12.18
2022-12-19T23:21:13.495Z,12.69
2022-12-19T23:23:43.209Z,12.49
2022-12-19T23:26:15.538Z,12.68
2022-12-19T23:28:43.514Z,12.94
2022-12-19T23:31:11.968Z,12.94
2022-12-19T23:33:38.525Z,12.39
2022-12-19T23:36:05.594Z,12.95
2022-12-19T23:38:32.560Z,13.14
2022-12-19T23:41:09.746Z,12.73
2022-12-19T23:43:37.112Z,13.12
2022-12-19T23:46:07.871Z,12.70
2022-12-19T23:48:34.806Z,13.21
2022-12-19T23:51:03.029Z,13.31
2022-12-19T23:53:30.593Z,13.66
2022-12-19T23:55:57.531Z,13.55
2022-12-19T23:58:24.869Z,13.03
